sensor_id;sensor_type;location;lat;lon;timestamp;temperature;humidity
10278;DHT22;5184;51.376;7.148;2022-08-25T00:01:32;21.10;1.00
10278;DHT22;5184;51.376;7.148;2022-08-25T00:03:59;21.00;1.00
10278;DHT22;5184;51.376;7.148;2022-08-25T00:06:25;20.90;1.00
10278;DHT22;5184;51.376;7.148;2022-08-25T00:08:52;20.90;1.00
10278;DHT22;5184;51.376;7.148;2022-08-25T00:11:20;20.80;1.00
10278;DHT22;5184;51.376;7.148;2022-08-25T00:13:49;20.70;75.70
10278;DHT22;5184;51.376;7.148;2022-08-25T00:16:14;20.70;74.10
10278;DHT22;5184;51.376;7.148;2022-08-25T00:18:40;20.60;99.90
10278;DHT22;5184;51.376;7.148;2022-08-25T00:21:06;20.60;99.90
10278;DHT22;5184;51.376;7.148;2022-08-25T00:23:33;20.50;38.00
10278;DHT22;5184;51.376;7.148;2022-08-25T00:26:01;20.50;1.00
10278;DHT22;5184;51.376;7.148;2022-08-25T00:28:27;20.50;1.00
10278;DHT22;5184;51.376;7.148;2022-08-25T00:30:54;20.60;1.00
10278;DHT22;5184;51.376;7.148;2022-08-25T00:33:21;20.60;1.00
10278;DHT22;5184;51.376;7.148;2022-08-25T00:35:48;20.60;1.00
10278;DHT22;5184;51.376;7.148;2022-08-25T00:38:15;20.60;1.00
10278;DHT22;5184;51.376;7.148;2022-08-25T00:40:42;20.60;1.00
10278;DHT22;5184;51.376;7.148;2022-08-25T00:43:09;20.70;1.00
10278;DHT22;5184;51.376;7.148;2022-08-25T00:45:35;20.70;1.00
10278;DHT22;5184;51.376;7.148;2022-08-25T00:48:02;20.70;1.00
10278;DHT22;5184;51.376;7.148;2022-08-25T00:50:29;20.70;1.00
10278;DHT22;5184;51.376;7.148;2022-08-25T00:52:55;20.80;1.00
10278;DHT22;5184;51.376;7.148;2022-08-25T00:55:24;20.80;1.00
10278;DHT22;5184;51.376;7.148;2022-08-25T00:57:52;20.80;1.00
10278;DHT22;5184;51.376;7.148;2022-08-25T01:00:21;20.80;1.00
10278;DHT22;5184;51.376;7.148;2022-08-25T01:02:45;20.70;1.00
10278;DHT22;5184;51.376;7.148;2022-08-25T01:05:12;20.80;1.00
10278;DHT22;5184;51.376;7.148;2022-08-25T01:07:40;20.80;1.00
10278;DHT22;5184;51.376;7.148;2022-08-25T01:10:06;20.70;1.00
10278;DHT22;5184;51.376;7.148;2022-08-25T01:12:34;20.80;1.00
10278;DHT22;5184;51.376;7.148;2022-08-25T01:15:00;20.80;1.00
10278;DHT22;5184;51.376;7.148;2022-08-25T01:17:33;20.80;1.00
10278;DHT22;5184;51.376;7.148;2022-08-25T01:19:58;20.80;1.00
10278;DHT22;5184;51.376;7.148;2022-08-25T01:22:26;20.70;1.00
10278;DHT22;5184;51.376;7.148;2022-08-25T01:24:57;20.70;1.00
10278;DHT22;5184;51.376;7.148;2022-08-25T01:27:22;20.70;1.00
10278;DHT22;5184;51.376;7.148;2022-08-25T01:29:48;20.70;1.00
10278;DHT22;5184;51.376;7.148;2022-08-25T01:32:15;20.70;1.00
10278;DHT22;5184;51.376;7.148;2022-08-25T01:34:43;20.60;1.00
10278;DHT22;5184;51.376;7.148;2022-08-25T01:37:10;20.60;1.00
10278;DHT22;5184;51.376;7.148;2022-08-25T01:39:36;20.60;1.00
10278;DHT22;5184;51.376;7.148;2022-08-25T01:42:27;20.60;1.00
10278;DHT22;5184;51.376;7.148;2022-08-25T01:44:50;20.60;1.00
10278;DHT22;5184;51.376;7.148;2022-08-25T01:47:17;20.60;1.00
10278;DHT22;5184;51.376;7.148;2022-08-25T01:49:43;20.60;1.00
10278;DHT22;5184;51.376;7.148;2022-08-25T01:52:15;20.60;1.00
10278;DHT22;5184;51.376;7.148;2022-08-25T01:54:40;20.70;1.00
10278;DHT22;5184;51.376;7.148;2022-08-25T01:57:07;20.70;1.00
10278;DHT22;5184;51.376;7.148;2022-08-25T01:59:33;20.60;1.00
10278;DHT22;5184;51.376;7.148;2022-08-25T02:02:00;20.60;1.00
10278;DHT22;5184;51.376;7.148;2022-08-25T02:04:27;20.50;1.00
10278;DHT22;5184;51.376;7.148;2022-08-25T02:06:54;20.40;1.00
10278;DHT22;5184;51.376;7.148;2022-08-25T02:09:22;20.30;1.00
10278;DHT22;5184;51.376;7.148;2022-08-25T02:11:49;20.30;1.00
10278;DHT22;5184;51.376;7.148;2022-08-25T02:14:15;20.20;1.00
10278;DHT22;5184;51.376;7.148;2022-08-25T02:16:44;20.20;3.50
10278;DHT22;5184;51.376;7.148;2022-08-25T02:19:09;20.10;46.80
10278;DHT22;5184;51.376;7.148;2022-08-25T02:21:35;20.10;73.40
10278;DHT22;5184;51.376;7.148;2022-08-25T02:24:03;20.00;99.90
10278;DHT22;5184;51.376;7.148;2022-08-25T02:26:29;19.90;99.90
10278;DHT22;5184;51.376;7.148;2022-08-25T02:28:56;19.90;99.90
10278;DHT22;5184;51.376;7.148;2022-08-25T02:31:23;19.90;99.90
10278;DHT22;5184;51.376;7.148;2022-08-25T02:33:49;19.80;99.90
10278;DHT22;5184;51.376;7.148;2022-08-25T02:36:16;19.70;99.90
10278;DHT22;5184;51.376;7.148;2022-08-25T02:38:43;19.70;99.90
10278;DHT22;5184;51.376;7.148;2022-08-25T02:41:14;19.60;1.00
10278;DHT22;5184;51.376;7.148;2022-08-25T02:43:40;19.60;1.00
10278;DHT22;5184;51.376;7.148;2022-08-25T02:46:06;19.60;1.00
10278;DHT22;5184;51.376;7.148;2022-08-25T02:48:33;19.50;1.00
10278;DHT22;5184;51.376;7.148;2022-08-25T02:51:00;19.50;1.00
10278;DHT22;5184;51.376;7.148;2022-08-25T02:53:28;19.50;99.90
10278;DHT22;5184;51.376;7.148;2022-08-25T02:55:55;19.50;1.00
10278;DHT22;5184;51.376;7.148;2022-08-25T02:58:22;19.60;1.00
10278;DHT22;5184;51.376;7.148;2022-08-25T03:00:50;19.50;1.00
10278;DHT22;5184;51.376;7.148;2022-08-25T03:03:17;19.50;1.00
10278;DHT22;5184;51.376;7.148;2022-08-25T03:05:43;19.60;1.00
10278;DHT22;5184;51.376;7.148;2022-08-25T03:08:10;19.60;1.00
10278;DHT22;5184;51.376;7.148;2022-08-25T03:10:37;19.70;99.90
10278;DHT22;5184;51.376;7.148;2022-08-25T03:13:04;19.70;99.90
10278;DHT22;5184;51.376;7.148;2022-08-25T03:15:30;19.70;99.90
10278;DHT22;5184;51.376;7.148;2022-08-25T03:17:57;19.70;1.00
10278;DHT22;5184;51.376;7.148;2022-08-25T03:20:24;19.70;1.00
10278;DHT22;5184;51.376;7.148;2022-08-25T03:22:50;19.60;1.00
10278;DHT22;5184;51.376;7.148;2022-08-25T03:25:17;19.50;1.00
10278;DHT22;5184;51.376;7.148;2022-08-25T03:27:49;19.50;1.00
10278;DHT22;5184;51.376;7.148;2022-08-25T03:30:16;19.50;99.90
10278;DHT22;5184;51.376;7.148;2022-08-25T03:32:42;19.40;1.00
10278;DHT22;5184;51.376;7.148;2022-08-25T03:35:09;19.30;1.00
10278;DHT22;5184;51.376;7.148;2022-08-25T03:37:36;19.20;1.00
10278;DHT22;5184;51.376;7.148;2022-08-25T03:40:04;19.20;1.00
10278;DHT22;5184;51.376;7.148;2022-08-25T03:42:29;19.20;1.00
10278;DHT22;5184;51.376;7.148;2022-08-25T03:44:56;19.10;1.00
10278;DHT22;5184;51.376;7.148;2022-08-25T03:47:22;19.10;1.00
10278;DHT22;5184;51.376;7.148;2022-08-25T03:49:51;19.00;1.00
10278;DHT22;5184;51.376;7.148;2022-08-25T03:52:17;19.00;1.00
10278;DHT22;5184;51.376;7.148;2022-08-25T03:54:44;19.00;10.20
10278;DHT22;5184;51.376;7.148;2022-08-25T03:57:11;19.00;59.70
10278;DHT22;5184;51.376;7.148;2022-08-25T03:59:38;18.90;99.90
10278;DHT22;5184;51.376;7.148;2022-08-25T04:02:05;18.90;99.90
10278;DHT22;5184;51.376;7.148;2022-08-25T04:04:31;18.80;99.90
10278;DHT22;5184;51.376;7.148;2022-08-25T04:06:58;18.70;99.90
10278;DHT22;5184;51.376;7.148;2022-08-25T04:09:24;18.70;1.00
10278;DHT22;5184;51.376;7.148;2022-08-25T04:11:51;18.60;1.00
10278;DHT22;5184;51.376;7.148;2022-08-25T04:14:18;18.40;25.50
10278;DHT22;5184;51.376;7.148;2022-08-25T04:16:46;18.40;56.10
10278;DHT22;5184;51.376;7.148;2022-08-25T04:19:12;18.40;42.90
10278;DHT22;5184;51.376;7.148;2022-08-25T04:21:39;18.40;59.50
10278;DHT22;5184;51.376;7.148;2022-08-25T04:24:06;18.40;16.20
10278;DHT22;5184;51.376;7.148;2022-08-25T04:26:36;18.30;22.00
10278;DHT22;5184;51.376;7.148;2022-08-25T04:29:03;18.30;8.00
10278;DHT22;5184;51.376;7.148;2022-08-25T04:31:30;18.30;1.00
10278;DHT22;5184;51.376;7.148;2022-08-25T04:33:56;18.30;1.00
10278;DHT22;5184;51.376;7.148;2022-08-25T04:36:23;18.30;1.00
10278;DHT22;5184;51.376;7.148;2022-08-25T04:38:50;18.30;1.00
10278;DHT22;5184;51.376;7.148;2022-08-25T04:41:18;18.30;99.90
10278;DHT22;5184;51.376;7.148;2022-08-25T04:43:44;18.20;99.90
10278;DHT22;5184;51.376;7.148;2022-08-25T04:46:11;18.30;99.90
10278;DHT22;5184;51.376;7.148;2022-08-25T04:48:37;18.30;99.90
10278;DHT22;5184;51.376;7.148;2022-08-25T04:51:05;18.30;99.90
10278;DHT22;5184;51.376;7.148;2022-08-25T04:53:32;18.20;99.90
10278;DHT22;5184;51.376;7.148;2022-08-25T04:55:58;18.20;99.90
10278;DHT22;5184;51.376;7.148;2022-08-25T04:58:25;18.20;99.90
10278;DHT22;5184;51.376;7.148;2022-08-25T05:00:52;18.20;99.90
10278;DHT22;5184;51.376;7.148;2022-08-25T05:03:19;18.20;99.90
10278;DHT22;5184;51.376;7.148;2022-08-25T05:05:46;18.20;99.90
10278;DHT22;5184;51.376;7.148;2022-08-25T05:08:12;18.10;1.00
10278;DHT22;5184;51.376;7.148;2022-08-25T05:10:39;18.10;1.00
10278;DHT22;5184;51.376;7.148;2022-08-25T05:13:05;18.10;1.00
10278;DHT22;5184;51.376;7.148;2022-08-25T05:15:32;18.10;1.00
10278;DHT22;5184;51.376;7.148;2022-08-25T05:18:04;18.10;1.00
10278;DHT22;5184;51.376;7.148;2022-08-25T05:20:34;18.10;1.00
10278;DHT22;5184;51.376;7.148;2022-08-25T05:22:58;18.00;1.00
10278;DHT22;5184;51.376;7.148;2022-08-25T05:25:25;18.10;1.00
10278;DHT22;5184;51.376;7.148;2022-08-25T05:27:53;18.10;1.00
10278;DHT22;5184;51.376;7.148;2022-08-25T05:30:20;18.10;1.00
10278;DHT22;5184;51.376;7.148;2022-08-25T05:32:47;18.20;1.00
10278;DHT22;5184;51.376;7.148;2022-08-25T05:35:15;18.30;1.00
10278;DHT22;5184;51.376;7.148;2022-08-25T05:37:42;18.30;1.00
10278;DHT22;5184;51.376;7.148;2022-08-25T05:40:09;18.30;1.00
10278;DHT22;5184;51.376;7.148;2022-08-25T05:42:36;18.30;61.30
10278;DHT22;5184;51.376;7.148;2022-08-25T05:45:03;18.40;88.30
10278;DHT22;5184;51.376;7.148;2022-08-25T05:47:29;18.40;1.80
10278;DHT22;5184;51.376;7.148;2022-08-25T05:49:56;18.50;1.00
10278;DHT22;5184;51.376;7.148;2022-08-25T05:52:25;18.50;1.00
10278;DHT22;5184;51.376;7.148;2022-08-25T05:54:51;18.60;88.40
10278;DHT22;5184;51.376;7.148;2022-08-25T05:57:18;18.60;37.00
10278;DHT22;5184;51.376;7.148;2022-08-25T05:59:45;18.70;1.00
10278;DHT22;5184;51.376;7.148;2022-08-25T06:02:13;18.80;1.00
10278;DHT22;5184;51.376;7.148;2022-08-25T06:04:45;18.80;1.00
10278;DHT22;5184;51.376;7.148;2022-08-25T06:07:12;18.90;1.00
10278;DHT22;5184;51.376;7.148;2022-08-25T06:09:39;18.90;1.00
10278;DHT22;5184;51.376;7.148;2022-08-25T06:12:06;18.90;99.90
10278;DHT22;5184;51.376;7.148;2022-08-25T06:14:33;19.00;99.90
10278;DHT22;5184;51.376;7.148;2022-08-25T06:17:00;19.20;99.90
10278;DHT22;5184;51.376;7.148;2022-08-25T06:19:27;19.20;99.90
10278;DHT22;5184;51.376;7.148;2022-08-25T06:21:55;19.30;99.90
10278;DHT22;5184;51.376;7.148;2022-08-25T06:24:24;19.40;99.90
10278;DHT22;5184;51.376;7.148;2022-08-25T06:26:50;19.50;99.90
10278;DHT22;5184;51.376;7.148;2022-08-25T06:29:17;19.40;99.90
10278;DHT22;5184;51.376;7.148;2022-08-25T06:31:44;19.50;37.00
10278;DHT22;5184;51.376;7.148;2022-08-25T06:34:11;19.70;1.00
10278;DHT22;5184;51.376;7.148;2022-08-25T06:36:38;19.80;1.00
10278;DHT22;5184;51.376;7.148;2022-08-25T06:39:06;20.20;1.00
10278;DHT22;5184;51.376;7.148;2022-08-25T06:41:33;20.00;1.00
10278;DHT22;5184;51.376;7.148;2022-08-25T06:43:59;20.00;1.00
10278;DHT22;5184;51.376;7.148;2022-08-25T06:46:27;20.20;1.00
10278;DHT22;5184;51.376;7.148;2022-08-25T06:48:54;20.20;1.00
10278;DHT22;5184;51.376;7.148;2022-08-25T06:51:21;20.30;1.00
10278;DHT22;5184;51.376;7.148;2022-08-25T06:53:48;20.40;1.00
10278;DHT22;5184;51.376;7.148;2022-08-25T06:56:15;20.40;1.00
10278;DHT22;5184;51.376;7.148;2022-08-25T06:58:41;20.50;1.00
10278;DHT22;5184;51.376;7.148;2022-08-25T07:03:45;20.60;99.90
10278;DHT22;5184;51.376;7.148;2022-08-25T07:06:12;20.80;99.90
10278;DHT22;5184;51.376;7.148;2022-08-25T07:08:39;20.70;99.90
10278;DHT22;5184;51.376;7.148;2022-08-25T07:11:07;21.00;99.90
10278;DHT22;5184;51.376;7.148;2022-08-25T07:13:34;21.20;99.90
10278;DHT22;5184;51.376;7.148;2022-08-25T07:16:01;21.40;99.90
10278;DHT22;5184;51.376;7.148;2022-08-25T07:18:28;21.30;99.90
10278;DHT22;5184;51.376;7.148;2022-08-25T07:20:54;21.40;80.50
10278;DHT22;5184;51.376;7.148;2022-08-25T07:23:21;21.60;42.10
10278;DHT22;5184;51.376;7.148;2022-08-25T07:25:49;21.80;62.50
10278;DHT22;5184;51.376;7.148;2022-08-25T07:28:16;21.80;15.00
10278;DHT22;5184;51.376;7.148;2022-08-25T07:30:43;21.80;9.00
10278;DHT22;5184;51.376;7.148;2022-08-25T07:33:09;21.90;1.00
10278;DHT22;5184;51.376;7.148;2022-08-25T07:35:36;22.00;1.00
10278;DHT22;5184;51.376;7.148;2022-08-25T07:38:03;22.10;1.00
10278;DHT22;5184;51.376;7.148;2022-08-25T07:40:30;22.20;1.00
10278;DHT22;5184;51.376;7.148;2022-08-25T07:42:57;22.40;1.00
10278;DHT22;5184;51.376;7.148;2022-08-25T07:45:25;22.50;1.00
10278;DHT22;5184;51.376;7.148;2022-08-25T07:47:51;22.60;1.00
10278;DHT22;5184;51.376;7.148;2022-08-25T07:50:19;22.60;1.00
10278;DHT22;5184;51.376;7.148;2022-08-25T07:52:45;23.50;1.00
10278;DHT22;5184;51.376;7.148;2022-08-25T07:55:12;22.70;1.00
10278;DHT22;5184;51.376;7.148;2022-08-25T07:57:39;22.80;1.00
10278;DHT22;5184;51.376;7.148;2022-08-25T08:00:06;22.90;1.00
10278;DHT22;5184;51.376;7.148;2022-08-25T08:02:33;23.00;1.00
10278;DHT22;5184;51.376;7.148;2022-08-25T08:05:00;23.20;1.00
10278;DHT22;5184;51.376;7.148;2022-08-25T08:07:27;23.10;1.00
10278;DHT22;5184;51.376;7.148;2022-08-25T08:09:53;23.20;99.90
10278;DHT22;5184;51.376;7.148;2022-08-25T08:12:21;23.50;99.90
10278;DHT22;5184;51.376;7.148;2022-08-25T08:14:49;23.60;99.90
10278;DHT22;5184;51.376;7.148;2022-08-25T08:17:15;23.60;99.90
10278;DHT22;5184;51.376;7.148;2022-08-25T08:19:42;23.70;99.90
10278;DHT22;5184;51.376;7.148;2022-08-25T08:22:08;23.80;99.90
10278;DHT22;5184;51.376;7.148;2022-08-25T08:24:37;23.80;99.90
10278;DHT22;5184;51.376;7.148;2022-08-25T08:27:06;24.00;99.90
10278;DHT22;5184;51.376;7.148;2022-08-25T08:29:33;24.00;99.90
10278;DHT22;5184;51.376;7.148;2022-08-25T08:32:00;24.10;99.90
10278;DHT22;5184;51.376;7.148;2022-08-25T08:34:27;24.20;99.90
10278;DHT22;5184;51.376;7.148;2022-08-25T08:36:54;24.30;99.90
10278;DHT22;5184;51.376;7.148;2022-08-25T08:39:21;24.30;99.90
10278;DHT22;5184;51.376;7.148;2022-08-25T08:41:54;24.40;99.90
10278;DHT22;5184;51.376;7.148;2022-08-25T08:44:26;24.50;49.40
10278;DHT22;5184;51.376;7.148;2022-08-25T08:49:39;24.80;22.50
10278;DHT22;5184;51.376;7.148;2022-08-25T08:52:05;24.70;19.80
10278;DHT22;5184;51.376;7.148;2022-08-25T08:54:33;24.80;1.00
10278;DHT22;5184;51.376;7.148;2022-08-25T08:57:03;24.90;10.00
10278;DHT22;5184;51.376;7.148;2022-08-25T08:59:30;25.00;49.40
10278;DHT22;5184;51.376;7.148;2022-08-25T09:01:56;25.00;7.40
10278;DHT22;5184;51.376;7.148;2022-08-25T09:04:25;25.20;1.00
10278;DHT22;5184;51.376;7.148;2022-08-25T09:06:48;25.30;1.00
10278;DHT22;5184;51.376;7.148;2022-08-25T09:09:18;25.40;1.00
10278;DHT22;5184;51.376;7.148;2022-08-25T09:12:02;25.60;1.00
10278;DHT22;5184;51.376;7.148;2022-08-25T09:17:05;25.70;1.00
10278;DHT22;5184;51.376;7.148;2022-08-25T09:22:59;25.80;1.00
10278;DHT22;5184;51.376;7.148;2022-08-25T09:25:31;26.00;1.00
10278;DHT22;5184;51.376;7.148;2022-08-25T09:28:42;26.10;1.00
10278;DHT22;5184;51.376;7.148;2022-08-25T09:30:53;26.10;1.00
10278;DHT22;5184;51.376;7.148;2022-08-25T09:33:19;26.30;1.00
10278;DHT22;5184;51.376;7.148;2022-08-25T09:35:45;26.40;1.00
10278;DHT22;5184;51.376;7.148;2022-08-25T09:38:12;26.40;1.00
10278;DHT22;5184;51.376;7.148;2022-08-25T09:40:42;26.50;1.00
10278;DHT22;5184;51.376;7.148;2022-08-25T09:43:31;26.60;1.00
10278;DHT22;5184;51.376;7.148;2022-08-25T09:46:02;26.60;1.00
10278;DHT22;5184;51.376;7.148;2022-08-25T09:48:31;26.80;99.90
10278;DHT22;5184;51.376;7.148;2022-08-25T09:51:00;26.90;99.90
10278;DHT22;5184;51.376;7.148;2022-08-25T09:53:26;27.00;99.90
10278;DHT22;5184;51.376;7.148;2022-08-25T09:55:56;26.90;99.90
10278;DHT22;5184;51.376;7.148;2022-08-25T09:58:22;27.00;99.90
10278;DHT22;5184;51.376;7.148;2022-08-25T10:01:05;27.40;99.90
10278;DHT22;5184;51.376;7.148;2022-08-25T10:03:32;28.20;99.90
10278;DHT22;5184;51.376;7.148;2022-08-25T10:06:04;27.50;1.00
10278;DHT22;5184;51.376;7.148;2022-08-25T10:08:34;27.50;1.00
10278;DHT22;5184;51.376;7.148;2022-08-25T10:11:00;27.60;1.00
10278;DHT22;5184;51.376;7.148;2022-08-25T10:13:43;27.70;1.00
10278;DHT22;5184;51.376;7.148;2022-08-25T10:16:25;27.90;1.00
10278;DHT22;5184;51.376;7.148;2022-08-25T10:19:04;28.00;1.00
10278;DHT22;5184;51.376;7.148;2022-08-25T10:21:29;28.00;1.00
10278;DHT22;5184;51.376;7.148;2022-08-25T10:23:56;28.10;1.00
10278;DHT22;5184;51.376;7.148;2022-08-25T10:29:08;28.20;1.00
10278;DHT22;5184;51.376;7.148;2022-08-25T10:31:35;28.20;1.00
10278;DHT22;5184;51.376;7.148;2022-08-25T10:34:17;28.30;1.00
10278;DHT22;5184;51.376;7.148;2022-08-25T10:36:46;28.30;1.00
10278;DHT22;5184;51.376;7.148;2022-08-25T10:39:14;28.30;1.00
10278;DHT22;5184;51.376;7.148;2022-08-25T10:41:41;28.30;1.00
10278;DHT22;5184;51.376;7.148;2022-08-25T10:44:28;28.40;1.00
10278;DHT22;5184;51.376;7.148;2022-08-25T10:49:54;28.60;1.00
10278;DHT22;5184;51.376;7.148;2022-08-25T10:52:19;28.60;1.00
10278;DHT22;5184;51.376;7.148;2022-08-25T10:54:56;28.70;1.00
10278;DHT22;5184;51.376;7.148;2022-08-25T10:57:30;28.70;1.00
10278;DHT22;5184;51.376;7.148;2022-08-25T10:59:59;28.60;1.00
10278;DHT22;5184;51.376;7.148;2022-08-25T11:03:03;28.60;1.00
10278;DHT22;5184;51.376;7.148;2022-08-25T11:05:31;28.70;1.00
10278;DHT22;5184;51.376;7.148;2022-08-25T11:08:02;28.70;1.00
10278;DHT22;5184;51.376;7.148;2022-08-25T11:10:26;28.70;1.00
10278;DHT22;5184;51.376;7.148;2022-08-25T11:12:53;28.70;1.00
10278;DHT22;5184;51.376;7.148;2022-08-25T11:15:24;28.70;1.00
10278;DHT22;5184;51.376;7.148;2022-08-25T11:17:52;28.80;1.00
10278;DHT22;5184;51.376;7.148;2022-08-25T11:20:20;28.80;1.00
10278;DHT22;5184;51.376;7.148;2022-08-25T11:22:49;28.90;1.00
10278;DHT22;5184;51.376;7.148;2022-08-25T11:25:18;28.90;1.00
10278;DHT22;5184;51.376;7.148;2022-08-25T11:27:56;28.90;1.00
10278;DHT22;5184;51.376;7.148;2022-08-25T11:30:18;29.00;1.00
10278;DHT22;5184;51.376;7.148;2022-08-25T11:32:47;29.10;1.00
10278;DHT22;5184;51.376;7.148;2022-08-25T11:35:13;29.40;1.00
10278;DHT22;5184;51.376;7.148;2022-08-25T11:37:45;29.30;1.00
10278;DHT22;5184;51.376;7.148;2022-08-25T11:40:16;29.20;1.00
10278;DHT22;5184;51.376;7.148;2022-08-25T11:42:49;29.40;1.00
10278;DHT22;5184;51.376;7.148;2022-08-25T11:45:34;29.60;1.00
10278;DHT22;5184;51.376;7.148;2022-08-25T11:47:59;29.60;1.00
10278;DHT22;5184;51.376;7.148;2022-08-25T11:50:28;29.70;1.00
10278;DHT22;5184;51.376;7.148;2022-08-25T11:52:53;29.70;1.00
10278;DHT22;5184;51.376;7.148;2022-08-25T11:55:22;29.70;1.00
10278;DHT22;5184;51.376;7.148;2022-08-25T11:57:47;29.70;1.00
10278;DHT22;5184;51.376;7.148;2022-08-25T12:02:56;30.10;1.00
10278;DHT22;5184;51.376;7.148;2022-08-25T12:08:09;30.20;1.00
10278;DHT22;5184;51.376;7.148;2022-08-25T12:10:53;30.20;1.00
10278;DHT22;5184;51.376;7.148;2022-08-25T12:13:37;30.20;1.00
10278;DHT22;5184;51.376;7.148;2022-08-25T12:15:54;30.10;1.00
10278;DHT22;5184;51.376;7.148;2022-08-25T12:18:38;30.10;1.00
10278;DHT22;5184;51.376;7.148;2022-08-25T12:21:08;30.10;1.00
10278;DHT22;5184;51.376;7.148;2022-08-25T12:23:37;30.10;1.00
10278;DHT22;5184;51.376;7.148;2022-08-25T12:28:59;30.20;1.00
10278;DHT22;5184;51.376;7.148;2022-08-25T12:31:28;30.20;1.00
10278;DHT22;5184;51.376;7.148;2022-08-25T12:34:00;30.30;1.00
10278;DHT22;5184;51.376;7.148;2022-08-25T12:36:29;30.40;1.00
10278;DHT22;5184;51.376;7.148;2022-08-25T12:38:55;30.50;1.00
10278;DHT22;5184;51.376;7.148;2022-08-25T12:41:23;30.60;1.00
10278;DHT22;5184;51.376;7.148;2022-08-25T12:43:49;30.70;1.00
10278;DHT22;5184;51.376;7.148;2022-08-25T12:46:36;30.70;1.00
10278;DHT22;5184;51.376;7.148;2022-08-25T12:49:11;30.70;1.00
10278;DHT22;5184;51.376;7.148;2022-08-25T12:51:52;30.70;1.00
10278;DHT22;5184;51.376;7.148;2022-08-25T12:56:56;30.90;1.00
10278;DHT22;5184;51.376;7.148;2022-08-25T12:59:22;30.90;1.00
10278;DHT22;5184;51.376;7.148;2022-08-25T13:02:15;30.90;1.00
10278;DHT22;5184;51.376;7.148;2022-08-25T13:04:51;31.00;1.00
10278;DHT22;5184;51.376;7.148;2022-08-25T13:07:13;31.10;1.00
10278;DHT22;5184;51.376;7.148;2022-08-25T13:09:44;31.10;1.00
10278;DHT22;5184;51.376;7.148;2022-08-25T13:12:29;31.00;1.00
10278;DHT22;5184;51.376;7.148;2022-08-25T13:14:53;31.10;1.00
10278;DHT22;5184;51.376;7.148;2022-08-25T13:17:26;31.00;1.00
10278;DHT22;5184;51.376;7.148;2022-08-25T13:20:09;30.90;1.00
10278;DHT22;5184;51.376;7.148;2022-08-25T13:22:18;30.80;1.00
10278;DHT22;5184;51.376;7.148;2022-08-25T13:24:45;30.90;1.00
10278;DHT22;5184;51.376;7.148;2022-08-25T13:27:21;30.90;1.00
10278;DHT22;5184;51.376;7.148;2022-08-25T13:29:50;31.00;1.00
10278;DHT22;5184;51.376;7.148;2022-08-25T13:32:24;31.30;1.00
10278;DHT22;5184;51.376;7.148;2022-08-25T13:34:43;31.30;1.00
10278;DHT22;5184;51.376;7.148;2022-08-25T13:37:22;31.40;1.00
10278;DHT22;5184;51.376;7.148;2022-08-25T13:42:33;31.40;1.00
10278;DHT22;5184;51.376;7.148;2022-08-25T13:44:59;31.40;1.00
10278;DHT22;5184;51.376;7.148;2022-08-25T13:47:32;31.40;1.00
10278;DHT22;5184;51.376;7.148;2022-08-25T13:52:36;31.50;1.00
10278;DHT22;5184;51.376;7.148;2022-08-25T13:55:04;31.80;1.00
10278;DHT22;5184;51.376;7.148;2022-08-25T13:57:31;31.70;1.00
10278;DHT22;5184;51.376;7.148;2022-08-25T14:00:00;31.90;1.00
10278;DHT22;5184;51.376;7.148;2022-08-25T14:02:45;32.10;1.00
10278;DHT22;5184;51.376;7.148;2022-08-25T14:05:11;32.10;1.00
10278;DHT22;5184;51.376;7.148;2022-08-25T14:07:38;32.20;1.00
10278;DHT22;5184;51.376;7.148;2022-08-25T14:10:09;32.20;1.00
10278;DHT22;5184;51.376;7.148;2022-08-25T14:12:40;32.10;1.00
10278;DHT22;5184;51.376;7.148;2022-08-25T14:15:07;32.00;1.00
10278;DHT22;5184;51.376;7.148;2022-08-25T14:17:32;31.60;1.00
10278;DHT22;5184;51.376;7.148;2022-08-25T14:20:00;31.40;1.00
10278;DHT22;5184;51.376;7.148;2022-08-25T14:22:27;31.40;1.00
10278;DHT22;5184;51.376;7.148;2022-08-25T14:24:54;31.40;1.00
10278;DHT22;5184;51.376;7.148;2022-08-25T14:27:22;31.30;1.00
10278;DHT22;5184;51.376;7.148;2022-08-25T14:29:49;31.20;1.00
10278;DHT22;5184;51.376;7.148;2022-08-25T14:32:16;31.20;1.00
10278;DHT22;5184;51.376;7.148;2022-08-25T14:34:43;31.20;1.00
10278;DHT22;5184;51.376;7.148;2022-08-25T14:37:13;31.60;1.00
10278;DHT22;5184;51.376;7.148;2022-08-25T14:39:38;31.70;1.00
10278;DHT22;5184;51.376;7.148;2022-08-25T14:42:05;31.60;1.00
10278;DHT22;5184;51.376;7.148;2022-08-25T14:44:32;32.10;1.00
10278;DHT22;5184;51.376;7.148;2022-08-25T14:46:59;32.60;1.00
10278;DHT22;5184;51.376;7.148;2022-08-25T14:49:28;33.10;1.00
10278;DHT22;5184;51.376;7.148;2022-08-25T14:51:55;33.10;1.00
10278;DHT22;5184;51.376;7.148;2022-08-25T14:54:22;33.10;1.00
10278;DHT22;5184;51.376;7.148;2022-08-25T14:56:47;33.60;1.00
10278;DHT22;5184;51.376;7.148;2022-08-25T14:59:14;34.30;1.00
10278;DHT22;5184;51.376;7.148;2022-08-25T15:01:41;34.70;1.00
10278;DHT22;5184;51.376;7.148;2022-08-25T15:04:09;34.80;1.00
10278;DHT22;5184;51.376;7.148;2022-08-25T15:06:34;35.10;1.00
10278;DHT22;5184;51.376;7.148;2022-08-25T15:09:00;34.70;1.00
10278;DHT22;5184;51.376;7.148;2022-08-25T15:11:33;34.00;1.00
10278;DHT22;5184;51.376;7.148;2022-08-25T15:13:59;33.60;1.00
10278;DHT22;5184;51.376;7.148;2022-08-25T15:16:32;33.90;1.00
10278;DHT22;5184;51.376;7.148;2022-08-25T15:18:58;34.80;1.00
10278;DHT22;5184;51.376;7.148;2022-08-25T15:21:24;34.80;1.00
10278;DHT22;5184;51.376;7.148;2022-08-25T15:23:50;35.00;1.00
10278;DHT22;5184;51.376;7.148;2022-08-25T15:26:17;35.30;1.00
10278;DHT22;5184;51.376;7.148;2022-08-25T15:28:45;35.40;1.00
10278;DHT22;5184;51.376;7.148;2022-08-25T15:31:10;35.40;1.00
10278;DHT22;5184;51.376;7.148;2022-08-25T15:33:38;35.30;1.00
10278;DHT22;5184;51.376;7.148;2022-08-25T15:36:07;35.30;1.00
10278;DHT22;5184;51.376;7.148;2022-08-25T15:38:34;35.30;1.00
10278;DHT22;5184;51.376;7.148;2022-08-25T15:41:00;35.20;1.00
10278;DHT22;5184;51.376;7.148;2022-08-25T15:43:27;35.20;1.00
10278;DHT22;5184;51.376;7.148;2022-08-25T15:45:54;35.10;1.00
10278;DHT22;5184;51.376;7.148;2022-08-25T15:48:20;35.10;1.00
10278;DHT22;5184;51.376;7.148;2022-08-25T15:50:47;35.10;1.00
10278;DHT22;5184;51.376;7.148;2022-08-25T15:53:14;35.00;1.00
10278;DHT22;5184;51.376;7.148;2022-08-25T15:55:41;34.90;1.00
10278;DHT22;5184;51.376;7.148;2022-08-25T15:58:09;34.90;1.00
10278;DHT22;5184;51.376;7.148;2022-08-25T16:00:36;34.80;1.00
10278;DHT22;5184;51.376;7.148;2022-08-25T16:03:04;34.80;1.00
10278;DHT22;5184;51.376;7.148;2022-08-25T16:05:31;34.70;1.00
10278;DHT22;5184;51.376;7.148;2022-08-25T16:07:57;34.60;1.00
10278;DHT22;5184;51.376;7.148;2022-08-25T16:10:24;34.70;1.00
10278;DHT22;5184;51.376;7.148;2022-08-25T16:12:51;34.70;1.00
10278;DHT22;5184;51.376;7.148;2022-08-25T16:15:17;34.40;1.00
10278;DHT22;5184;51.376;7.148;2022-08-25T16:17:45;34.30;1.00
10278;DHT22;5184;51.376;7.148;2022-08-25T16:20:14;34.50;1.00
10278;DHT22;5184;51.376;7.148;2022-08-25T16:22:40;34.50;1.00
10278;DHT22;5184;51.376;7.148;2022-08-25T16:25:07;34.50;1.00
10278;DHT22;5184;51.376;7.148;2022-08-25T16:27:35;34.50;1.00
10278;DHT22;5184;51.376;7.148;2022-08-25T16:30:02;34.40;1.00
10278;DHT22;5184;51.376;7.148;2022-08-25T16:32:29;34.40;1.00
10278;DHT22;5184;51.376;7.148;2022-08-25T16:34:56;34.40;1.00
10278;DHT22;5184;51.376;7.148;2022-08-25T16:37:23;34.40;1.00